createdAt,value
2023-02-11T00:02:36.149Z,102543.47
2023-02-11T00:05:38.731Z,102535.34
2023-02-11T00:08:41.119Z,102545.66
2023-02-11T00:11:43.618Z,102544.66
2023-02-11T00:14:46.041Z,102569.34
2023-02-11T00:17:48.490Z,102571.34
2023-02-11T00:20:50.907Z,102572.97
2023-02-11T00:23:54.964Z,102578.84
2023-02-11T00:26:57.586Z,102572.78
2023-02-11T00:30:02.286Z,102557.34
2023-02-11T00:33:06.461Z,102574.97
2023-02-11T00:36:12.166Z,102573.47
2023-02-11T00:39:14.594Z,102563.19
2023-02-11T00:42:17.126Z,102576.47
2023-02-11T00:45:21.439Z,102553.66
2023-02-11T00:48:23.983Z,102558.34
2023-02-11T00:51:28.166Z,102564.19
2023-02-11T00:54:31.665Z,102558.66
2023-02-11T00:57:34.145Z,102536.34
2023-02-11T01:00:36.706Z,102522.47
2023-02-11T01:03:40.063Z,102523.06
2023-02-11T01:06:42.610Z,102509.91
2023-02-11T01:09:45.066Z,102528.97
2023-02-11T01:12:47.874Z,102501.88
2023-02-11T01:15:50.630Z,102522.47
2023-02-11T01:18:53.302Z,102508.22
2023-02-11T01:21:55.705Z,102499.50
2023-02-11T01:24:58.180Z,102506.75
2023-02-11T01:28:00.660Z,102494.19
2023-02-11T01:31:05.194Z,102491.28
2023-02-11T01:34:08.493Z,102491.06
2023-02-11T01:37:12.664Z,102496.75
2023-02-11T01:40:17.215Z,102494.78
2023-02-11T01:43:20.772Z,102494.78
2023-02-11T01:46:38.277Z,102510.53
2023-02-11T01:49:47.278Z,102482.09
2023-02-11T01:52:49.733Z,102497.00
2023-02-11T01:56:10.949Z,102503.09
2023-02-11T01:59:22.769Z,102497.88
2023-02-11T02:02:37.482Z,102485.94
2023-02-11T02:06:01.406Z,102496.50
2023-02-11T02:09:13.284Z,102485.53
2023-02-11T02:12:15.769Z,102486.22
2023-02-11T02:15:19.454Z,102484.31
2023-02-11T02:18:44.940Z,102474.56
2023-02-11T02:22:26.208Z,102474.59
2023-02-11T02:25:48.489Z,102458.03
2023-02-11T02:29:23.331Z,102462.56
2023-02-11T02:32:37.848Z,102454.25
2023-02-11T02:35:52.230Z,102460.66
2023-02-11T02:39:06.137Z,102435.75
2023-02-11T02:42:09.501Z,102460.00
2023-02-11T02:45:12.700Z,102468.59
2023-02-11T02:48:33.027Z,102462.28
2023-02-11T02:51:38.969Z,102473.31
2023-02-11T02:54:56.520Z,102477.56
2023-02-11T02:58:01.716Z,102476.13
2023-02-11T03:01:22.406Z,102466.44
2023-02-11T03:04:35.972Z,102470.94
2023-02-11T03:07:57.095Z,102476.94
2023-02-11T03:11:00.919Z,102450.19
2023-02-11T03:14:06.487Z,102466.94
2023-02-11T03:17:10.151Z,102440.19
2023-02-11T03:20:15.299Z,102453.19
2023-02-11T03:23:28.872Z,102437.06
2023-02-11T03:26:38.587Z,102440.03
2023-02-11T03:29:51.836Z,102410.06
2023-02-11T03:33:01.534Z,102434.88
2023-02-11T03:36:08.091Z,102425.56
2023-02-11T03:39:11.291Z,102407.56
2023-02-11T03:42:15.447Z,102414.03
2023-02-11T03:45:20.807Z,102409.69
2023-02-11T03:48:30.933Z,102416.41
2023-02-11T03:51:33.980Z,102389.03
2023-02-11T03:54:36.776Z,102400.28
2023-02-11T03:57:39.327Z,102376.31
2023-02-11T04:00:43.516Z,102388.69
2023-02-11T04:03:45.912Z,102360.63
2023-02-11T04:06:48.314Z,102360.78
2023-02-11T04:09:50.816Z,102346.59
2023-02-11T04:12:53.362Z,102361.06
2023-02-11T04:15:55.783Z,102355.75
2023-02-11T04:18:58.856Z,102347.81
2023-02-11T04:22:01.521Z,102310.44
2023-02-11T04:25:05.257Z,102325.19
2023-02-11T04:28:07.717Z,102345.50
2023-02-11T04:31:12.121Z,102334.59
2023-02-11T04:34:14.681Z,102334.94
2023-02-11T04:37:17.183Z,102350.72
2023-02-11T04:40:19.765Z,102348.44
2023-02-11T04:43:22.195Z,102345.97
2023-02-11T04:46:25.058Z,102369.88
2023-02-11T04:49:28.500Z,102374.13
2023-02-11T04:52:30.938Z,102369.38
2023-02-11T04:55:33.307Z,102384.81
2023-02-11T04:58:35.773Z,102381.91
2023-02-11T05:01:38.303Z,102380.47
2023-02-11T05:04:40.831Z,102371.63
2023-02-11T05:07:43.555Z,102386.97
2023-02-11T05:10:47.578Z,102382.38
2023-02-11T05:13:50.592Z,102382.53
2023-02-11T05:16:53.173Z,102363.84
2023-02-11T05:19:55.566Z,102382.19
2023-02-11T05:22:57.935Z,102366.84
2023-02-11T05:26:00.408Z,102381.44
2023-02-11T05:29:02.939Z,102357.13
2023-02-11T05:32:05.393Z,102362.81
2023-02-11T05:35:09.442Z,102366.22
2023-02-11T05:38:11.956Z,102379.13
2023-02-11T05:41:14.379Z,102332.44
2023-02-11T05:44:16.762Z,102322.75
2023-02-11T05:47:19.158Z,102344.66
2023-02-11T05:50:21.689Z,102328.72
2023-02-11T05:53:26.768Z,102318.28
2023-02-11T05:56:29.210Z,102310.56
2023-02-11T05:59:31.733Z,102315.03
2023-02-11T06:02:34.532Z,102341.09
2023-02-11T06:05:37.024Z,102352.06
2023-02-11T06:08:40.020Z,102340.50
2023-02-11T06:11:42.540Z,102348.16
2023-02-11T06:14:45.850Z,102355.41
2023-02-11T06:17:48.266Z,102352.47
2023-02-11T06:20:50.834Z,102353.56
2023-02-11T06:23:53.253Z,102338.19
2023-02-11T06:26:55.662Z,102324.63
2023-02-11T06:29:58.546Z,102316.19
2023-02-11T06:33:00.997Z,102299.72
2023-02-11T06:36:04.938Z,102315.41
2023-02-11T06:39:08.212Z,102322.81
2023-02-11T06:42:10.721Z,102313.34
2023-02-11T06:45:13.447Z,102322.13
2023-02-11T06:48:16.069Z,102298.50
2023-02-11T06:51:18.828Z,102302.78
2023-02-11T06:54:21.286Z,102271.81
2023-02-11T06:57:23.672Z,102266.56
2023-02-11T07:00:26.659Z,102278.59
2023-02-11T07:03:29.580Z,102284.28
2023-02-11T07:06:32.218Z,102289.66
2023-02-11T07:09:34.781Z,102301.78
2023-02-11T07:12:37.534Z,102288.94
2023-02-11T07:15:40.013Z,102299.69
2023-02-11T07:18:42.736Z,102291.03
2023-02-11T07:21:45.727Z,102297.19
2023-02-11T07:24:48.414Z,102309.66
2023-02-11T07:27:51.086Z,102328.19
2023-02-11T07:30:53.626Z,102289.09
2023-02-11T07:33:59.973Z,102293.59
2023-02-11T07:37:02.951Z,102280.94
2023-02-11T07:40:05.917Z,102268.81
2023-02-11T07:43:08.445Z,102273.63
2023-02-11T07:46:16.590Z,102288.81
2023-02-11T07:49:18.978Z,102286.91
2023-02-11T07:52:21.370Z,102275.66
2023-02-11T07:55:24.106Z,102299.56
2023-02-11T07:58:26.523Z,102299.44
2023-02-11T08:01:29.876Z,102316.69
2023-02-11T08:04:32.302Z,102321.28
2023-02-11T08:07:34.658Z,102311.72
2023-02-11T08:10:37.172Z,102327.00
2023-02-11T08:13:40.020Z,102315.31
2023-02-11T08:16:42.564Z,102327.09
2023-02-11T08:19:45.025Z,102335.97
2023-02-11T08:22:47.654Z,102321.50
2023-02-11T08:25:50.087Z,102316.06
2023-02-11T08:28:53.993Z,102318.31
2023-02-11T08:31:56.488Z,102305.28
2023-02-11T08:34:59.015Z,102275.53
2023-02-11T08:38:01.608Z,102280.13
2023-02-11T08:41:04.350Z,102273.81
2023-02-11T08:44:06.983Z,102258.41
2023-02-11T08:47:09.504Z,102268.66
2023-02-11T08:50:12.067Z,102264.16
2023-02-11T08:53:14.531Z,102275.44
2023-02-11T08:56:18.194Z,102267.66
2023-02-11T08:59:20.825Z,102246.28
2023-02-11T09:02:23.312Z,102269.31
2023-02-11T09:05:25.974Z,102259.13
2023-02-11T09:08:28.436Z,102262.13
2023-02-11T09:11:34.026Z,102238.31
2023-02-11T09:14:36.426Z,102262.91
2023-02-11T09:17:38.915Z,102246.31
2023-02-11T09:20:41.626Z,102251.34
2023-02-11T09:23:44.826Z,102244.72
2023-02-11T09:26:47.249Z,102244.91
2023-02-11T09:29:50.322Z,102243.72
2023-02-11T09:32:52.755Z,102236.72
2023-02-11T09:35:55.430Z,102255.31
2023-02-11T09:38:59.429Z,102244.53
2023-02-11T09:42:37.464Z,102246.13
2023-02-11T09:45:39.972Z,102240.69
2023-02-11T09:48:44.507Z,102227.47
2023-02-11T09:51:55.939Z,102248.03
2023-02-11T09:55:01.178Z,102259.28
2023-02-11T09:58:11.114Z,102246.38
2023-02-11T10:01:35.925Z,102235.06
2023-02-11T10:05:16.039Z,102236.19
2023-02-11T10:08:34.425Z,102209.84
2023-02-11T10:12:11.070Z,102184.91
2023-02-11T10:15:14.142Z,102217.03
2023-02-11T10:18:38.704Z,102215.81
2023-02-11T10:21:47.838Z,102197.19
2023-02-11T10:24:54.564Z,102173.00
2023-02-11T10:27:58.485Z,102166.03
2023-02-11T10:31:03.979Z,102143.69
2023-02-11T10:34:09.718Z,102131.09
2023-02-11T10:37:13.915Z,102143.56
2023-02-11T10:40:28.997Z,102152.63
2023-02-11T10:43:32.414Z,102155.00
2023-02-11T10:46:40.242Z,102165.44
2023-02-11T10:49:44.463Z,102146.50
2023-02-11T10:52:46.936Z,102154.41
2023-02-11T10:55:52.901Z,102138.13
2023-02-11T10:58:59.363Z,102157.94
2023-02-11T11:02:06.080Z,102134.22
2023-02-11T11:05:20.546Z,102152.34
2023-02-11T11:08:44.704Z,102105.06
2023-02-11T11:11:53.898Z,102149.22
2023-02-11T11:15:01.759Z,102121.69
2023-02-11T11:18:23.619Z,102134.78
2023-02-11T11:21:35.559Z,102114.69
2023-02-11T11:24:45.082Z,102107.16
2023-02-11T11:27:52.093Z,102109.06
2023-02-11T11:30:56.129Z,102110.88
2023-02-11T11:34:00.145Z,102093.94
2023-02-11T11:37:22.475Z,102093.78
2023-02-11T11:40:33.707Z,102071.50
2023-02-11T11:43:37.678Z,102060.25
2023-02-11T11:46:42.574Z,102052.63
2023-02-11T11:49:56.877Z,102070.59
2023-02-11T11:53:36.426Z,102079.03
2023-02-11T11:56:45.998Z,102062.44
2023-02-11T11:59:48.688Z,102053.19
2023-02-11T12:02:56.887Z,102062.84
2023-02-11T12:06:07.968Z,102039.56
2023-02-11T12:09:25.966Z,102043.34
2023-02-11T12:12:53.449Z,102024.22
2023-02-11T12:16:16.528Z,102020.09
2023-02-11T12:19:30.743Z,102019.03
2023-02-11T12:23:05.199Z,102011.84
2023-02-11T12:26:16.007Z,101990.97
2023-02-11T12:29:33.763Z,101975.19
2023-02-11T12:32:48.042Z,101959.03
2023-02-11T12:36:01.350Z,101933.75
2023-02-11T12:39:17.313Z,101939.88
2023-02-11T12:43:13.739Z,101944.06
2023-02-11T12:46:31.358Z,101946.41
2023-02-11T12:49:54.106Z,101954.09
2023-02-11T12:53:15.170Z,101959.31
2023-02-11T12:56:41.871Z,101972.91
2023-02-11T13:00:00.865Z,101967.28
2023-02-11T13:03:09.575Z,101983.75
2023-02-11T13:06:15.665Z,101969.16
2023-02-11T13:09:33.277Z,101959.00
2023-02-11T13:12:55.675Z,101942.91
2023-02-11T13:16:32.539Z,101929.06
2023-02-11T13:19:44.703Z,101893.22
2023-02-11T13:23:01.928Z,101881.28
2023-02-11T13:26:24.467Z,101863.72
2023-02-11T13:30:03.017Z,101885.06
2023-02-11T13:33:17.031Z,101865.09
2023-02-11T13:36:21.218Z,101882.91
2023-02-11T13:39:24.671Z,101869.28
2023-02-11T13:42:29.040Z,101867.63
2023-02-11T13:45:42.021Z,101850.28
2023-02-11T13:48:53.076Z,101867.88
2023-02-11T13:51:56.712Z,101881.88
2023-02-11T13:55:22.820Z,101860.22
2023-02-11T13:58:28.630Z,101871.28
2023-02-11T14:02:09.360Z,101857.88
2023-02-11T14:05:42.565Z,101859.03
2023-02-11T14:09:08.878Z,101837.72
2023-02-11T14:12:33.679Z,101851.06
2023-02-11T14:15:40.111Z,101845.59
2023-02-11T14:18:45.290Z,101855.53
2023-02-11T14:21:47.794Z,101838.88
2023-02-11T14:25:01.526Z,101864.56
2023-02-11T14:28:15.470Z,101873.94
2023-02-11T14:31:27.313Z,101855.53
2023-02-11T14:34:51.454Z,101885.75
2023-02-11T14:38:11.794Z,101875.03
2023-02-11T14:41:25.637Z,101880.25
2023-02-11T14:44:30.752Z,101873.09
2023-02-11T14:47:58.288Z,101860.88
2023-02-11T14:51:02.164Z,101854.59
2023-02-11T14:54:13.423Z,101831.31
2023-02-11T14:57:19.213Z,101825.06
2023-02-11T15:00:22.903Z,101819.13
2023-02-11T15:03:27.144Z,101820.31
2023-02-11T15:06:49.678Z,101811.81
2023-02-11T15:09:53.811Z,101805.81
2023-02-11T15:12:56.553Z,101803.91
2023-02-11T15:16:06.854Z,101795.31
2023-02-11T15:19:20.087Z,101790.91
2023-02-11T15:22:25.919Z,101802.59
2023-02-11T15:25:34.363Z,101803.63
2023-02-11T15:28:37.222Z,101792.59
2023-02-11T15:31:40.076Z,101771.59
2023-02-11T15:34:43.778Z,101761.50
2023-02-11T15:37:47.381Z,101748.59
2023-02-11T15:40:57.524Z,101741.41
2023-02-11T15:44:00.182Z,101769.91
2023-02-11T15:47:02.576Z,101741.66
2023-02-11T15:50:06.411Z,101763.78
2023-02-11T15:53:22.468Z,101778.88
2023-02-11T15:56:37.627Z,101766.13
2023-02-11T15:59:45.545Z,101765.34
2023-02-11T16:02:50.799Z,101758.50
2023-02-11T16:05:55.578Z,101775.72
2023-02-11T16:09:13.015Z,101789.13
2023-02-11T16:12:29.267Z,101751.31
2023-02-11T16:15:55.451Z,101779.28
2023-02-11T16:19:05.835Z,101772.31
2023-02-11T16:22:11.712Z,101764.63
2023-02-11T16:25:19.161Z,101757.25
2023-02-11T16:28:21.998Z,101754.03
2023-02-11T16:31:36.063Z,101744.59
2023-02-11T16:34:38.518Z,101741.44
2023-02-11T16:37:41.224Z,101745.75
2023-02-11T16:40:46.193Z,101740.09
2023-02-11T16:43:48.882Z,101771.00
2023-02-11T16:46:52.603Z,101785.94
2023-02-11T16:49:55.860Z,101785.13
2023-02-11T16:52:59.465Z,101756.31
2023-02-11T16:56:02.529Z,101789.91
2023-02-11T16:59:05.152Z,101772.53
2023-02-11T17:02:24.157Z,101762.44
2023-02-11T17:05:27.078Z,101780.38
2023-02-11T17:08:30.003Z,101786.00
2023-02-11T17:11:32.667Z,101772.44
2023-02-11T17:14:35.346Z,101772.16
2023-02-11T17:17:38.026Z,101752.91
2023-02-11T17:20:41.530Z,101737.00
2023-02-11T17:23:45.888Z,101768.72
2023-02-11T17:26:48.789Z,101768.06
2023-02-11T17:29:51.438Z,101735.59
2023-02-11T17:32:54.031Z,101712.03
2023-02-11T17:35:56.658Z,101720.09
2023-02-11T17:39:00.322Z,101739.03
2023-02-11T17:42:03.242Z,101748.06
2023-02-11T17:45:06.158Z,101753.44
2023-02-11T17:48:08.888Z,101734.13
2023-02-11T17:51:25.163Z,101734.94
2023-02-11T17:54:27.917Z,101740.28
2023-02-11T17:57:30.300Z,101741.38
2023-02-11T18:00:33.177Z,101747.66
2023-02-11T18:03:36.456Z,101730.94
2023-02-11T18:06:39.185Z,101732.78
2023-02-11T18:09:42.115Z,101730.66
2023-02-11T18:12:45.123Z,101730.06
2023-02-11T18:15:47.840Z,101726.94
2023-02-11T18:18:51.058Z,101729.63
2023-02-11T18:21:54.033Z,101749.50
2023-02-11T18:24:56.822Z,101739.53
2023-02-11T18:27:59.529Z,101714.09
2023-02-11T18:31:02.595Z,101715.72
2023-02-11T18:34:07.625Z,101716.13
2023-02-11T18:37:11.547Z,101720.00
2023-02-11T18:40:15.394Z,101709.69
2023-02-11T18:43:19.926Z,101730.44
2023-02-11T18:46:22.554Z,101730.75
2023-02-11T18:49:25.380Z,101722.84
2023-02-11T18:52:28.140Z,101728.50
2023-02-11T18:55:31.570Z,101748.72
2023-02-11T18:58:34.257Z,101714.69
2023-02-11T19:01:40.039Z,101745.38
2023-02-11T19:04:42.959Z,101717.00
2023-02-11T19:07:45.727Z,101737.88
2023-02-11T19:10:49.455Z,101748.31
2023-02-11T19:13:52.180Z,101744.81
2023-02-11T19:16:57.310Z,101719.81
2023-02-11T19:20:00.002Z,101733.59
2023-02-11T19:23:02.849Z,101725.31
2023-02-11T19:26:06.541Z,101722.81
2023-02-11T19:29:10.624Z,101720.50
2023-02-11T19:32:13.315Z,101722.69
2023-02-11T19:35:16.195Z,101723.78
2023-02-11T19:38:19.205Z,101737.19
2023-02-11T19:41:23.212Z,101748.66
2023-02-11T19:44:26.211Z,101741.97
2023-02-11T19:47:29.033Z,101747.75
2023-02-11T19:50:31.779Z,101758.44
2023-02-11T19:53:34.832Z,101755.84
2023-02-11T19:56:38.031Z,101751.06
2023-02-11T19:59:40.744Z,101741.97
2023-02-11T20:02:43.553Z,101721.88
2023-02-11T20:05:47.885Z,101742.44
2023-02-11T20:08:59.261Z,101720.06
2023-02-11T20:12:02.053Z,101734.81
2023-02-11T20:15:04.993Z,101745.03
2023-02-11T20:18:07.786Z,101733.25
2023-02-11T20:21:19.216Z,101729.38
2023-02-11T20:24:24.805Z,101711.88
2023-02-11T20:27:29.462Z,101718.81
2023-02-11T20:30:32.201Z,101729.84
2023-02-11T20:33:34.983Z,101730.41
2023-02-11T20:36:38.733Z,101733.25
2023-02-11T20:39:44.821Z,101726.66
2023-02-11T20:42:47.516Z,101738.78
2023-02-11T20:45:50.379Z,101694.41
2023-02-11T20:48:55.110Z,101743.66
2023-02-11T20:51:58.549Z,101737.88
2023-02-11T20:55:01.689Z,101707.59
2023-02-11T20:58:05.764Z,101746.63
2023-02-11T21:01:16.707Z,101736.97
2023-02-11T21:04:22.501Z,101745.00
2023-02-11T21:07:28.166Z,101722.09
2023-02-11T21:10:30.668Z,101747.41
2023-02-11T21:13:34.298Z,101736.41
2023-02-11T21:16:37.561Z,101719.38
2023-02-11T21:19:41.582Z,101709.63
2023-02-11T21:22:44.351Z,101705.06
2023-02-11T21:25:47.126Z,101716.09
2023-02-11T21:28:50.094Z,101712.25
2023-02-11T21:31:52.855Z,101697.72
2023-02-11T21:34:56.643Z,101721.78
2023-02-11T21:37:59.322Z,101699.97
2023-02-11T21:41:05.558Z,101716.56
2023-02-11T21:44:09.174Z,101742.97
2023-02-11T21:47:11.940Z,101741.03
2023-02-11T21:50:14.802Z,101739.19
2023-02-11T21:53:17.449Z,101715.44
2023-02-11T21:56:20.093Z,101742.25
2023-02-11T21:59:22.721Z,101732.63
2023-02-11T22:02:25.401Z,101724.97
2023-02-11T22:05:27.855Z,101722.69
2023-02-11T22:08:30.757Z,101735.72
2023-02-11T22:11:33.619Z,101727.25
2023-02-11T22:14:36.541Z,101713.47
2023-02-11T22:17:38.956Z,101701.91
2023-02-11T22:20:41.471Z,101725.34
2023-02-11T22:23:44.376Z,101732.28
2023-02-11T22:26:46.988Z,101728.28
2023-02-11T22:29:49.369Z,101734.06
2023-02-11T22:32:51.846Z,101729.00
2023-02-11T22:36:04.962Z,101724.84
2023-02-11T22:39:17.628Z,101738.06
2023-02-11T22:42:20.561Z,101729.44
2023-02-11T22:45:23.014Z,101731.44
2023-02-11T22:48:25.816Z,101743.03
2023-02-11T22:51:30.009Z,101735.28
2023-02-11T22:54:32.439Z,101741.81
2023-02-11T22:57:34.883Z,101750.56
2023-02-11T23:00:39.706Z,101763.25
2023-02-11T23:03:42.521Z,101775.16
2023-02-11T23:06:47.502Z,101743.25
2023-02-11T23:09:50.519Z,101748.03
2023-02-11T23:12:53.036Z,101766.00
2023-02-11T23:15:55.853Z,101758.81
2023-02-11T23:19:00.269Z,101754.53
2023-02-11T23:22:03.538Z,101751.84
2023-02-11T23:25:05.977Z,101741.81
2023-02-11T23:28:08.666Z,101749.09
2023-02-11T23:31:14.138Z,101755.44
2023-02-11T23:34:25.178Z,101734.94
2023-02-11T23:37:27.567Z,101747.09
2023-02-11T23:40:30.058Z,101756.13
2023-02-11T23:43:32.835Z,101777.38
2023-02-11T23:46:35.292Z,101770.63
2023-02-11T23:49:37.712Z,101772.84
2023-02-11T23:52:40.150Z,101779.22
2023-02-11T23:55:43.400Z,101781.66
2023-02-11T23:58:48.686Z,101757.16
